Time;durP1;ratioP1;P1;durP2;ratioP2;P2;SDS_P1;SDS_P2;PMS_P1;PMS_P2;Temp;Humidity;BMP_temperature;BMP_pressure;BME280_temperature;BME280_humidity;BME280_pressure;Samples;Min_cycle;Max_cycle;Signal;HPM_P1;HPM_P2
2020/12/20 00:00:08;;;;;;;7.50;1.88;;;;;;;8.98;84.69;100242.78;5077166;28;20385;-75
2020/12/20 00:02:34;;;;;;;5.90;1.90;;;;;;;8.95;84.60;100237.63;5076364;28;20052;-78
2020/12/20 00:05:00;;;;;;;4.97;1.75;;;;;;;8.91;84.81;100244.94;5077212;28;20097;-76
2020/12/20 00:07:26;;;;;;;5.47;1.58;;;;;;;8.86;85.10;100238.97;5076012;28;20052;-75
2020/12/20 00:09:52;;;;;;;5.95;2.30;;;;;;;8.91;85.18;100236.06;5077186;28;20106;-77
2020/12/20 00:12:18;;;;;;;9.30;1.60;;;;;;;8.97;85.20;100241.06;5077195;28;20049;-76
2020/12/20 00:14:45;;;;;;;4.22;1.88;;;;;;;9.02;85.12;100233.69;5076836;28;20048;-76
2020/12/20 00:17:12;;;;;;;7.20;2.00;;;;;;;8.90;85.12;100221.91;5075973;28;20362;-76
2020/12/20 00:19:38;;;;;;;6.97;1.98;;;;;;;9.01;85.11;100245.31;5076955;28;20048;-76
2020/12/20 00:22:10;;;;;;;9.85;2.50;;;;;;;8.98;85.15;100240.13;5076963;28;20048;-75
2020/12/20 00:24:37;;;;;;;7.18;1.63;;;;;;;9.02;85.20;100236.38;5078397;28;20048;-75
2020/12/20 00:27:05;;;;;;;6.25;1.83;;;;;;;9.07;84.88;100244.09;5078671;28;20052;-76
2020/12/20 00:29:33;;;;;;;6.50;1.98;;;;;;;9.10;84.85;100242.13;5075507;28;20056;-75
2020/12/20 00:32:05;;;;;;;6.32;1.90;;;;;;;9.15;84.84;100259.69;5076691;28;20048;-75
2020/12/20 00:34:32;;;;;;;6.75;1.67;;;;;;;9.13;84.83;100250.88;5075205;28;20102;-74
2020/12/20 00:36:59;;;;;;;5.10;1.70;;;;;;;9.17;84.86;100260.44;5075183;28;20052;-78
2020/12/20 00:39:26;;;;;;;5.50;1.58;;;;;;;9.18;84.82;100262.16;5076624;28;20503;-76
2020/12/20 00:41:57;;;;;;;3.53;1.65;;;;;;;9.24;84.76;100259.16;5076181;28;20097;-76
2020/12/20 00:44:25;;;;;;;8.25;1.70;;;;;;;9.30;84.57;100257.97;5076203;28;20483;-78
2020/12/20 00:46:53;;;;;;;8.15;1.63;;;;;;;9.37;84.41;100262.91;5075236;28;20052;-77
2020/12/20 00:49:31;;;;;;;5.97;1.40;;;;;;;9.37;84.32;100254.03;5076421;28;20056;-76
2020/12/20 00:52:00;;;;;;;5.10;1.67;;;;;;;9.44;83.99;100260.78;5076116;28;20052;-78
2020/12/20 00:54:26;;;;;;;7.32;1.80;;;;;;;9.40;84.29;100259.22;5075954;28;20048;-77
2020/12/20 00:56:53;;;;;;;4.93;2.03;;;;;;;9.41;84.15;100257.41;5075925;28;20426;-77
2020/12/20 00:59:19;;;;;;;7.95;1.98;;;;;;;9.38;84.31;100247.78;5075695;28;20055;-78
2020/12/20 01:01:46;;;;;;;6.60;1.83;;;;;;;9.38;84.30;100256.63;5075798;28;20060;-75
2020/12/20 01:04:12;;;;;;;6.40;1.95;;;;;;;9.36;84.45;100257.63;5074863;28;20117;-75
2020/12/20 01:06:38;;;;;;;8.48;2.20;;;;;;;9.10;84.68;100231.47;5076187;28;20052;-75
2020/12/20 01:09:06;;;;;;;4.50;1.60;;;;;;;9.15;84.71;100241.03;5075820;28;20434;-76
2020/12/20 01:11:32;;;;;;;7.05;1.50;;;;;;;9.20;85.02;100260.28;5074933;28;20052;-75
2020/12/20 01:14:01;;;;;;;5.20;1.70;;;;;;;9.18;85.26;100265.69;5074003;28;20126;-76
2020/12/20 01:16:32;;;;;;;8.02;1.90;;;;;;;9.14;85.25;100268.63;5074544;28;20450;-77
2020/12/20 01:18:59;;;;;;;5.80;2.03;;;;;;;9.16;85.18;100272.03;5075666;28;20138;-77
2020/12/20 01:21:26;;;;;;;5.95;1.80;;;;;;;9.14;85.19;100263.28;5075500;28;20356;-76
2020/12/20 01:23:53;;;;;;;7.47;1.77;;;;;;;9.17;85.37;100274.63;5075266;28;20052;-78
2020/12/20 01:26:21;;;;;;;5.40;1.77;;;;;;;9.05;85.32;100254.81;5075447;28;20048;-76
2020/12/20 01:28:47;;;;;;;6.78;2.08;;;;;;;9.18;85.51;100271.03;5075588;28;20052;-76
2020/12/20 01:31:14;;;;;;;4.55;1.90;;;;;;;9.12;85.36;100263.38;5075629;28;20113;-77
2020/12/20 01:33:41;;;;;;;4.28;1.60;;;;;;;9.17;85.44;100266.66;5075280;28;20048;-77
2020/12/20 01:36:12;;;;;;;4.97;1.90;;;;;;;9.14;85.70;100266.78;5075209;28;20052;-76
2020/12/20 01:38:39;;;;;;;;;;;;;;;9.14;85.79;100264.13;5075929;28;20101;-77
2020/12/20 01:41:05;;;;;;;9.57;2.25;;;;;;;9.20;85.51;100268.25;5074531;28;19924;-78
2020/12/20 01:43:48;;;;;;;8.15;2.40;;;;;;;9.17;85.68;100268.44;5075063;28;20053;-75
2020/12/20 01:46:18;;;;;;;4.78;2.53;;;;;;;9.17;85.79;100268.44;5075244;28;20048;-75
2020/12/20 01:48:47;;;;;;;5.13;1.73;;;;;;;9.12;85.59;100262.50;5074058;28;20098;-78
2020/12/20 01:51:13;;;;;;;8.57;1.92;;;;;;;9.22;85.57;100242.44;5075453;28;20102;-75
2020/12/20 01:53:40;;;;;;;6.47;1.90;;;;;;;9.26;85.18;100241.28;5075006;28;20052;-75
2020/12/20 01:56:08;;;;;;;6.13;1.55;;;;;;;9.30;85.26;100237.53;5075062;28;20453;-75
2020/12/20 01:58:37;;;;;;;8.98;2.10;;;;;;;9.30;85.08;100237.53;5074961;28;20044;-77
2020/12/20 02:01:05;;;;;;;9.77;2.08;;;;;;;9.28;85.11;100238.56;5075029;28;20048;-77
2020/12/20 02:03:32;;;;;;;5.50;1.92;;;;;;;9.18;85.18;100223.09;5074997;28;20060;-75
2020/12/20 02:05:59;;;;;;;9.18;2.15;;;;;;;9.10;85.12;100206.69;5073991;28;20131;-78
2020/12/20 02:08:25;;;;;;;4.57;1.80;;;;;;;9.37;84.98;100246.91;5074933;28;20071;-78
2020/12/20 02:11:10;;;;;;;8.25;2.25;;;;;;;9.38;84.76;100247.78;5073782;28;20410;-77
2020/12/20 02:13:45;;;;;;;9.38;2.47;;;;;;;9.31;84.90;100243.75;5074680;28;20045;-78
2020/12/20 02:16:17;;;;;;;5.35;1.92;;;;;;;9.23;84.90;100225.50;5074715;28;20071;-77
2020/12/20 02:18:43;;;;;;;6.72;2.10;;;;;;;9.31;84.86;100249.06;5075023;28;20079;-77
2020/12/20 02:21:12;;;;;;;3.47;1.50;;;;;;;9.29;84.62;100241.16;5075007;28;20048;-78
2020/12/20 02:23:43;;;;;;;5.97;1.98;;;;;;;9.32;84.63;100242.78;5074839;28;20049;-77
2020/12/20 02:26:12;;;;;;;;;;;;;;;9.35;84.52;100251.47;5078157;28;20057;-77
2020/12/20 02:28:39;;;;;;;4.90;2.05;;;;;;;9.33;84.71;100253.34;5079023;28;19966;-76
2020/12/20 02:31:06;;;;;;;5.03;1.60;;;;;;;9.26;84.85;100246.63;5078988;28;20438;-77
2020/12/20 02:33:32;;;;;;;6.07;1.83;;;;;;;9.28;84.58;100238.56;5079068;28;20044;-77
2020/12/20 02:35:59;;;;;;;8.55;2.10;;;;;;;9.30;84.49;100242.88;5079093;28;20048;-77
2020/12/20 02:38:26;;;;;;;14.07;2.10;;;;;;;9.31;84.25;100241.06;5078881;28;20110;-75
2020/12/20 02:40:52;;;;;;;5.70;2.00;;;;;;;9.32;84.39;100240.97;5077698;28;20052;-76
2020/12/20 02:43:19;;;;;;;4.25;2.00;;;;;;;9.29;84.38;100248.25;5079309;28;20056;-77
2020/12/20 02:45:45;;;;;;;4.63;1.65;;;;;;;9.27;84.38;100248.38;5079415;28;20052;-76
2020/12/20 02:48:11;;;;;;;9.80;1.90;;;;;;;9.29;84.46;100258.91;5080180;28;20098;-77
2020/12/20 02:50:37;;;;;;;7.55;1.73;;;;;;;9.32;83.94;100262.28;5080799;28;20358;-74
2020/12/20 02:53:04;;;;;;;7.13;1.92;;;;;;;9.27;84.25;100260.81;5080778;28;20052;-77
2020/12/20 02:55:30;;;;;;;5.10;2.10;;;;;;;9.31;83.81;100268.56;5082145;28;20078;-77
2020/12/20 02:57:56;;;;;;;9.00;1.90;;;;;;;9.31;83.86;100271.22;5081034;28;20048;-77
2020/12/20 03:00:23;;;;;;;6.32;2.42;;;;;;;9.22;84.09;100259.25;5081411;28;20060;-74
2020/12/20 03:02:49;;;;;;;3.85;1.80;;;;;;;9.23;84.15;100265.44;5080059;28;20327;-75
2020/12/20 03:05:17;;;;;;;4.75;1.77;;;;;;;9.21;84.27;100267.34;5079621;28;20074;-76
2020/12/20 03:07:48;;;;;;;6.32;2.35;;;;;;;9.21;84.10;100262.84;5078242;28;20443;-77
2020/12/20 03:10:15;;;;;;;5.93;1.80;;;;;;;9.19;84.18;100262.09;5079921;28;20056;-75
2020/12/20 03:12:41;;;;;;;5.70;1.92;;;;;;;9.18;84.00;100264.81;5079536;28;20106;-76
2020/12/20 03:15:08;;;;;;;4.38;1.50;;;;;;;9.14;84.15;100264.13;5079995;28;20052;-77
2020/12/20 03:17:34;;;;;;;4.03;1.70;;;;;;;9.26;83.64;100270.59;5078671;28;20066;-74
2020/12/20 03:20:00;;;;;;;6.03;2.20;;;;;;;9.27;83.23;100267.00;5079655;28;20056;-74
2020/12/20 03:22:26;;;;;;;6.25;2.15;;;;;;;9.30;83.11;100266.84;5080240;28;20101;-77
2020/12/20 03:24:52;;;;;;;6.43;2.63;;;;;;;9.28;83.35;100255.41;5080274;28;20381;-76
2020/12/20 03:27:18;;;;;;;8.10;2.05;;;;;;;9.28;83.36;100266.06;5080955;28;20102;-76
2020/12/20 03:29:45;;;;;;;5.60;1.60;;;;;;;9.29;83.31;100274.91;5080422;28;20056;-78
2020/12/20 03:32:11;;;;;;;5.38;2.13;;;;;;;9.29;83.33;100270.44;5080676;28;20071;-77
2020/12/20 03:34:37;;;;;;;6.15;2.20;;;;;;;9.18;83.49;100251.50;5081160;28;20059;-77
2020/12/20 03:37:03;;;;;;;8.25;2.40;;;;;;;9.15;83.60;100259.69;5081542;28;20057;-74
2020/12/20 03:39:30;;;;;;;9.43;2.20;;;;;;;9.18;83.79;100271.03;5082622;28;20052;-75
2020/12/20 03:41:57;;;;;;;7.32;1.67;;;;;;;9.18;83.83;100270.16;5083531;28;20052;-77
2020/12/20 03:44:23;;;;;;;5.78;1.92;;;;;;;9.18;83.84;100265.69;5083303;28;20049;-77
2020/12/20 03:46:49;;;;;;;8.52;2.22;;;;;;;9.18;83.56;100270.16;5082747;28;20118;-76
2020/12/20 03:49:15;;;;;;;5.40;1.73;;;;;;;9.15;83.81;100267.66;5082509;28;20083;-75
2020/12/20 03:51:41;;;;;;;8.43;1.75;;;;;;;8.99;83.60;100247.16;5083295;28;20048;-77
2020/12/20 03:54:08;;;;;;;7.90;1.95;;;;;;;9.23;83.44;100262.78;5082873;28;20044;-76
2020/12/20 03:56:34;;;;;;;5.18;1.65;;;;;;;9.19;83.34;100264.75;5082301;28;20102;-77
2020/12/20 03:59:00;;;;;;;7.00;1.60;;;;;;;9.07;83.54;100258.28;5081782;28;20109;-75
2020/12/20 04:01:26;;;;;;;8.48;2.33;;;;;;;9.06;83.82;100269.00;5080934;28;20083;-76
2020/12/20 04:03:53;;;;;;;7.20;2.33;;;;;;;9.09;83.71;100267.03;5080692;28;20381;-76
2020/12/20 04:06:19;;;;;;;7.47;1.90;;;;;;;9.09;83.78;100274.16;5080690;28;20426;-75
2020/12/20 04:08:46;;;;;;;9.38;2.38;;;;;;;9.02;83.76;100263.00;5081552;28;20056;-76
2020/12/20 04:11:12;;;;;;;8.57;2.05;;;;;;;9.08;83.71;100275.09;5081037;28;20098;-77
2020/12/20 04:13:38;;;;;;;8.15;1.70;;;;;;;9.06;83.76;100267.19;5080643;28;20049;-76
2020/12/20 04:16:05;;;;;;;6.05;1.70;;;;;;;9.00;83.79;100251.56;5077661;28;20063;-77
2020/12/20 04:18:31;;;;;;;7.32;2.00;;;;;;;9.10;83.56;100265.25;5077113;28;20392;-77
2020/12/20 04:20:57;;;;;;;10.50;2.17;;;;;;;9.04;83.55;100247.78;5083252;28;20049;-75
2020/12/20 04:23:23;;;;;;;6.38;1.95;;;;;;;9.06;83.46;100264.53;5083215;28;20045;-76
2020/12/20 04:25:49;;;;;;;6.93;1.92;;;;;;;9.05;83.51;100253.97;5081192;28;20056;-76
2020/12/20 04:28:17;;;;;;;6.88;1.83;;;;;;;9.08;83.43;100248.47;5084680;28;20059;-76
2020/12/20 04:30:43;;;;;;;9.15;1.92;;;;;;;9.16;83.05;100251.59;5080029;28;20068;-76
2020/12/20 04:33:09;;;;;;;6.22;1.92;;;;;;;9.13;83.08;100245.56;5081097;28;20048;-76
2020/12/20 04:35:36;;;;;;;8.73;1.95;;;;;;;9.06;83.28;100245.88;5084593;28;20345;-76
2020/12/20 04:38:02;;;;;;;4.88;1.85;;;;;;;9.05;83.60;100249.50;5084914;28;20102;-75
2020/12/20 04:40:28;;;;;;;6.53;1.92;;;;;;;9.05;83.40;100246.84;5084665;28;20434;-76
2020/12/20 04:43:01;;;;;;;6.72;1.95;;;;;;;9.03;83.19;100245.19;5083034;28;20114;-77
2020/12/20 04:45:28;;;;;;;5.53;1.90;;;;;;;9.06;83.30;100253.03;5082143;28;20048;-76
2020/12/20 04:47:56;;;;;;;4.45;1.85;;;;;;;9.03;82.93;100247.84;5082410;28;20053;-75
2020/12/20 04:50:24;;;;;;;10.20;3.17;;;;;;;9.13;82.83;100261.53;5081845;28;20052;-77
2020/12/20 04:52:53;;;;;;;8.50;2.03;;;;;;;9.11;83.03;100258.97;5080158;28;20059;-77
2020/12/20 04:55:23;;;;;;;6.95;1.73;;;;;;;9.07;83.01;100247.63;5081237;28;20059;-76
2020/12/20 04:57:51;;;;;;;13.43;2.00;;;;;;;9.10;82.80;100265.25;5080635;28;20060;-75
2020/12/20 05:00:19;;;;;;;7.18;1.55;;;;;;;9.11;82.60;100264.31;5083238;28;20115;-75
2020/12/20 05:02:45;;;;;;;17.38;4.63;;;;;;;9.05;82.90;100259.31;5081159;28;20052;-76
2020/12/20 05:05:12;;;;;;;9.68;2.05;;;;;;;9.11;82.63;100266.97;5080974;28;20044;-79
2020/12/20 05:07:39;;;;;;;4.95;1.90;;;;;;;8.92;82.54;100241.31;5081655;28;20083;-78
2020/12/20 05:10:06;;;;;;;7.53;1.83;;;;;;;9.14;82.41;100266.78;5080249;28;20052;-76
2020/12/20 05:12:34;;;;;;;8.80;2.70;;;;;;;9.16;82.44;100274.72;5081107;28;20049;-76
2020/12/20 05:15:17;;;;;;;7.38;2.17;;;;;;;9.12;82.50;100270.47;5080180;28;20064;-76
2020/12/20 05:17:43;;;;;;;10.25;2.20;;;;;;;9.01;82.33;100252.41;5082024;28;20426;-76
2020/12/20 05:20:35;;;;;;;11.30;2.38;;;;;;;8.97;82.68;100251.72;5079615;28;20139;-77
2020/12/20 05:23:01;;;;;;;7.28;2.03;;;;;;;8.86;82.31;100227.47;5073283;28;20128;-77
2020/12/20 05:25:29;;;;;;;7.95;1.80;;;;;;;9.13;82.03;100277.53;5077686;28;20094;-78
2020/12/20 05:28:12;;;;;;;7.22;1.83;;;;;;;9.10;82.32;100275.91;5078726;28;20136;-79
2020/12/20 05:30:40;;;;;;;8.32;1.80;;;;;;;9.18;82.03;100280.81;5074724;28;20053;-75
2020/12/20 05:33:07;;;;;;;11.25;1.77;;;;;;;9.16;81.95;100282.69;5075810;28;20052;-76
2020/12/20 05:35:34;;;;;;;9.90;2.67;;;;;;;9.10;82.05;100279.41;5076725;28;20056;-74
2020/12/20 05:38:03;;;;;;;7.70;2.17;;;;;;;9.14;81.84;100266.78;5074607;28;20457;-78
2020/12/20 05:40:34;;;;;;;8.45;2.38;;;;;;;9.19;81.39;100278.06;5074849;28;20392;-76
2020/12/20 05:43:04;;;;;;;;;;;;;;;9.24;81.28;100269.81;5075922;28;20396;-76
2020/12/20 05:45:33;;;;;;;8.90;2.28;;;;;;;9.16;81.45;100280.88;5075581;28;20325;-77
2020/12/20 05:48:23;;;;;;;8.27;1.77;;;;;;;9.13;81.91;100280.19;5075260;28;20495;-77
2020/12/20 05:50:52;;;;;;;12.65;2.15;;;;;;;9.08;81.71;100277.78;5074922;28;20346;-76
2020/12/20 05:53:23;;;;;;;11.15;2.15;;;;;;;9.03;81.95;100280.69;5075172;28;20063;-76
2020/12/20 05:55:49;;;;;;;7.80;2.20;;;;;;;9.02;81.88;100270.09;5075158;28;20090;-75
2020/12/20 05:58:16;;;;;;;10.63;2.15;;;;;;;9.00;81.89;100279.97;5075325;28;20134;-75
2020/12/20 06:00:46;;;;;;;6.25;1.92;;;;;;;8.91;82.29;100273.34;5074795;28;20044;-77
2020/12/20 06:03:13;;;;;;;8.68;2.25;;;;;;;8.93;82.22;100288.28;5075123;28;20063;-77
2020/12/20 06:05:41;;;;;;;6.85;1.73;;;;;;;8.90;82.33;100288.47;5073783;28;20044;-77
2020/12/20 06:08:13;;;;;;;7.07;1.90;;;;;;;8.84;82.45;100291.44;5075166;28;20111;-77
2020/12/20 06:10:44;;;;;;;11.18;1.80;;;;;;;8.94;82.27;100290.00;5075272;28;20067;-76
2020/12/20 06:13:18;;;;;;;11.60;2.10;;;;;;;8.95;82.31;100306.84;5074845;28;20072;-76
2020/12/20 06:15:53;;;;;;;6.78;1.60;;;;;;;8.92;82.28;100304.31;5074954;28;20053;-76
2020/12/20 06:18:31;;;;;;;7.75;1.83;;;;;;;8.82;82.30;100286.19;5075299;28;20052;-76
2020/12/20 06:20:59;;;;;;;6.97;1.80;;;;;;;8.85;82.42;100292.28;5074832;28;20060;-75
2020/12/20 06:23:28;;;;;;;8.02;1.80;;;;;;;8.77;82.49;100295.34;5074617;28;20346;-77
2020/12/20 06:25:57;;;;;;;4.97;1.75;;;;;;;8.79;82.51;100302.31;5073688;28;20056;-77
2020/12/20 06:28:28;;;;;;;8.70;2.53;;;;;;;8.86;82.30;100305.53;5074928;28;20052;-77
2020/12/20 06:30:55;;;;;;;;;;;;;;;8.84;82.51;100307.41;5074514;28;20071;-76
2020/12/20 06:33:45;;;;;;;10.40;2.13;;;;;;;8.80;82.54;100306.72;5070071;28;19924;-80
2020/12/20 06:36:18;;;;;;;9.10;2.40;;;;;;;8.79;82.42;100312.97;5077640;28;20048;-77
2020/12/20 06:38:54;;;;;;;12.18;3.13;;;;;;;8.77;82.67;100314.00;5067549;28;20454;-80
2020/12/20 06:41:51;;;;;;;8.43;2.30;;;;;;;8.72;82.96;100303.56;5073371;28;20056;-79
2020/12/20 06:44:17;;;;;;;7.03;2.00;;;;;;;8.67;83.26;100303.78;5059548;28;20053;-77
2020/12/20 06:46:44;;;;;;;11.75;2.20;;;;;;;8.63;83.19;100307.56;5059502;28;20086;-73
2020/12/20 06:49:40;;;;;;;7.93;1.83;;;;;;;8.62;83.30;100303.19;5065516;28;20055;-73
2020/12/20 06:52:24;;;;;;;7.95;2.03;;;;;;;8.60;83.44;100298.88;5058695;28;20049;-74
2020/12/20 06:55:01;;;;;;;8.38;2.17;;;;;;;8.52;83.47;100296.59;5067139;28;20053;-73
2020/12/20 06:57:27;;;;;;;8.45;2.00;;;;;;;8.42;83.65;100282.84;5074960;28;20048;-76
2020/12/20 06:59:53;;;;;;;11.80;2.50;;;;;;;8.49;83.78;100302.06;5062837;28;20049;-77
2020/12/20 07:02:48;;;;;;;7.57;2.05;;;;;;;8.53;83.71;100307.16;5063674;28;20049;-77
2020/12/20 07:05:44;;;;;;;13.02;2.67;;;;;;;8.53;83.51;100307.16;5062328;28;20041;-77
2020/12/20 07:08:19;;;;;;;7.28;1.98;;;;;;;8.53;83.72;100322.25;5067085;28;20052;-74
2020/12/20 07:10:51;;;;;;;12.63;2.25;;;;;;;8.50;83.75;100323.22;5070650;28;20075;-78
2020/12/20 07:13:43;;;;;;;9.35;2.00;;;;;;;8.42;83.96;100314.78;5068096;28;20044;-80
2020/12/20 07:16:16;;;;;;;6.05;2.08;;;;;;;8.51;83.70;100318.78;5067620;28;20442;-78
2020/12/20 07:18:56;;;;;;;9.30;2.00;;;;;;;8.47;83.22;100301.25;5074263;28;20052;-83
2020/12/20 07:21:24;;;;;;;10.75;2.00;;;;;;;8.52;83.64;100320.53;5079066;28;20059;-79
2020/12/20 07:24:17;;;;;;;11.68;2.20;;;;;;;8.51;83.70;100330.31;5075561;28;21034;-80
2020/12/20 07:26:45;;;;;;;13.05;2.67;;;;;;;8.34;83.19;100296.53;5074686;28;20040;-83
2020/12/20 07:29:14;;;;;;;10.50;2.10;;;;;;;8.52;83.36;100326.72;5066657;28;20109;-80
2020/12/20 07:31:44;;;;;;;6.72;2.10;;;;;;;8.54;83.28;100318.66;5070430;28;20131;-78
2020/12/20 07:34:11;;;;;;;12.88;3.38;;;;;;;8.39;83.58;100299.00;5060870;28;20099;-77
2020/12/20 07:36:38;;;;;;;10.43;2.90;;;;;;;8.58;83.34;100330.88;5062504;28;20056;-79
2020/12/20 07:39:06;;;;;;;16.63;3.65;;;;;;;8.67;82.94;100342.88;5078297;28;20048;-78
2020/12/20 07:41:34;;;;;;;8.82;2.05;;;;;;;8.55;82.98;100326.56;5079767;28;20056;-77
2020/12/20 07:44:04;;;;;;;10.38;3.10;;;;;;;8.61;83.39;100345.81;5079643;28;20098;-76
2020/12/20 07:46:31;;;;;;;13.68;2.47;;;;;;;8.60;82.81;100329.00;5078189;28;20102;-77
2020/12/20 07:49:13;;;;;;;15.30;2.53;;;;;;;8.62;82.94;100343.09;5067698;28;20075;-77
2020/12/20 07:51:41;;;;;;;13.45;2.30;;;;;;;8.72;82.88;100343.47;5080005;28;20065;-78
2020/12/20 07:54:16;;;;;;;9.40;2.63;;;;;;;8.71;82.86;100348.88;5078335;28;20052;-80
2020/12/20 07:56:47;;;;;;;14.00;2.30;;;;;;;8.66;82.64;100341.16;5078169;28;20110;-78
2020/12/20 07:59:19;;;;;;;9.45;2.00;;;;;;;8.67;82.77;100350.84;5077964;28;20048;-79
2020/12/20 08:01:47;;;;;;;12.18;2.38;;;;;;;8.65;82.86;100361.56;5077046;28;20052;-78
2020/12/20 08:04:24;;;;;;;11.43;2.25;;;;;;;8.61;83.00;100348.50;5077643;28;20118;-79
2020/12/20 08:06:53;;;;;;;12.10;2.13;;;;;;;8.64;82.99;100356.31;5077774;28;20063;-76
2020/12/20 08:09:23;;;;;;;12.82;2.30;;;;;;;8.66;82.65;100367.75;5077422;28;20139;-78
2020/12/20 08:11:51;;;;;;;11.25;2.63;;;;;;;8.54;82.92;100346.13;5076930;28;20489;-78
2020/12/20 08:14:19;;;;;;;12.73;2.30;;;;;;;8.64;82.57;100364.28;5076703;28;20044;-79
2020/12/20 08:16:49;;;;;;;8.52;2.30;;;;;;;8.73;82.16;100376.28;5076766;28;20060;-79
2020/12/20 08:19:28;;;;;;;11.05;3.13;;;;;;;8.74;82.43;100378.88;5077213;28;20056;-78
2020/12/20 08:22:09;;;;;;;9.38;2.30;;;;;;;8.81;82.04;100384.72;5077723;28;20396;-79
2020/12/20 08:24:37;;;;;;;12.40;2.83;;;;;;;8.77;81.80;100372.53;5076287;28;20049;-76
2020/12/20 08:27:21;;;;;;;7.93;2.13;;;;;;;8.82;82.00;100379.34;5076519;28;20057;-76
2020/12/20 08:29:50;;;;;;;12.77;4.38;;;;;;;8.81;81.83;100377.63;5072177;28;20102;-73
2020/12/20 08:32:19;;;;;;;11.25;2.55;;;;;;;8.88;81.92;100382.63;5066897;28;20128;-75
2020/12/20 08:34:46;;;;;;;15.15;2.65;;;;;;;8.91;81.70;100377.16;5067605;28;20052;-74
2020/12/20 08:37:15;;;;;;;11.32;2.28;;;;;;;8.86;82.20;100374.72;5065761;28;20048;-74
2020/12/20 08:39:42;;;;;;;15.00;2.63;;;;;;;8.94;81.59;100387.66;5061669;28;20049;-76
2020/12/20 08:42:10;;;;;;;12.43;3.08;;;;;;;9.00;81.51;100382.03;5060988;28;20059;-76
2020/12/20 08:44:41;;;;;;;11.60;2.45;;;;;;;8.98;81.20;100370.56;5073088;28;20070;-72
2020/12/20 08:47:16;;;;;;;13.55;3.13;;;;;;;8.98;81.00;100365.25;5076900;28;20094;-77
2020/12/20 08:49:59;;;;;;;9.55;2.30;;;;;;;9.05;80.89;100371.97;5070304;28;20094;-75
2020/12/20 08:52:30;;;;;;;10.13;2.38;;;;;;;9.13;80.80;100392.03;5066004;28;20128;-74
2020/12/20 08:54:58;;;;;;;14.32;2.97;;;;;;;9.18;80.46;100390.88;5062643;28;20131;-73
2020/12/20 08:57:30;;;;;;;14.70;2.92;;;;;;;9.24;80.30;100398.53;5067533;28;20048;-74
2020/12/20 09:00:14;;;;;;;13.00;3.13;;;;;;;9.22;80.58;100405.72;5064865;28;20057;-75
2020/12/20 09:02:41;;;;;;;16.58;2.75;;;;;;;9.30;80.01;100393.81;5070243;28;20346;-80
2020/12/20 09:05:11;;;;;;;16.35;2.75;;;;;;;9.17;80.13;100386.47;5075266;28;20114;-80
2020/12/20 09:07:44;;;;;;;13.18;2.63;;;;;;;9.29;80.30;100398.28;5077718;28;20063;-79
2020/12/20 09:10:12;;;;;;;11.95;2.63;;;;;;;9.31;79.94;100403.56;5075839;28;20048;-79
2020/12/20 09:12:52;;;;;;;15.30;2.42;;;;;;;9.31;79.91;100412.38;5075996;28;20124;-80
2020/12/20 09:15:20;;;;;;;13.25;2.42;;;;;;;9.30;79.95;100418.66;5074872;28;20064;-78
2020/12/20 09:17:49;;;;;;;13.32;2.42;;;;;;;9.34;79.74;100412.25;5075771;28;20155;-80
2020/12/20 09:20:18;;;;;;;9.57;2.30;;;;;;;9.33;79.87;100413.16;5075543;28;20055;-78
2020/12/20 09:22:45;;;;;;;12.30;2.53;;;;;;;9.40;79.74;100424.38;5075504;28;20060;-75
2020/12/20 09:25:13;;;;;;;15.05;3.35;;;;;;;9.38;80.09;100416.44;5074157;28;20393;-76
2020/12/20 09:27:51;;;;;;;16.75;2.88;;;;;;;9.31;80.27;100408.88;5075522;28;20350;-76
2020/12/20 09:30:29;;;;;;;16.00;3.00;;;;;;;9.36;79.73;100421.00;5064289;28;20427;-73
2020/12/20 09:32:55;;;;;;;17.65;2.60;;;;;;;9.41;79.83;100430.56;5064008;28;20053;-76
2020/12/20 09:35:21;;;;;;;12.18;2.40;;;;;;;9.46;79.59;100434.72;5064066;28;20037;-74
2020/12/20 09:37:49;;;;;;;17.38;3.30;;;;;;;9.46;79.59;100426.72;5056638;28;20048;-75
2020/12/20 09:40:15;;;;;;;11.45;2.58;;;;;;;9.53;79.58;100429.91;5065987;28;20449;-76
2020/12/20 09:42:43;;;;;;;15.15;2.97;;;;;;;9.50;79.49;100435.41;5062814;28;20052;-77
2020/12/20 09:45:10;;;;;;;15.50;2.50;;;;;;;9.49;79.47;100439.03;5063716;28;20079;-78
2020/12/20 09:47:44;;;;;;;11.57;2.83;;;;;;;9.50;79.37;100441.59;5066570;28;20044;-76
2020/12/20 09:50:11;;;;;;;16.83;3.92;;;;;;;9.48;79.52;100424.81;5066007;28;20060;-76
2020/12/20 09:52:38;;;;;;;10.93;2.47;;;;;;;9.60;79.85;100441.97;5064824;28;20044;-76
2020/12/20 09:55:06;;;;;;;13.77;2.92;;;;;;;9.62;79.25;100450.75;5072655;28;20102;-75
2020/12/20 09:57:33;;;;;;;17.02;2.83;;;;;;;9.61;79.06;100446.38;5065893;28;20426;-75
2020/12/20 09:59:59;;;;;;;16.30;2.65;;;;;;;9.64;79.41;100448.88;5073264;28;20392;-75
2020/12/20 10:02:25;;;;;;;12.88;2.67;;;;;;;9.61;79.30;100443.72;5074878;28;20054;-75
2020/12/20 10:04:52;;;;;;;16.63;3.28;;;;;;;9.65;78.80;100441.75;5075149;28;20048;-76
2020/12/20 10:07:18;;;;;;;16.58;2.83;;;;;;;9.70;78.88;100442.34;5073819;28;20071;-75
2020/12/20 10:09:44;;;;;;;18.63;3.17;;;;;;;9.71;79.08;100451.22;5075297;28;20044;-78
2020/12/20 10:12:10;;;;;;;11.68;2.75;;;;;;;9.73;79.10;100455.53;5074860;28;20057;-75
2020/12/20 10:14:37;;;;;;;13.18;2.63;;;;;;;9.69;79.54;100450.44;5074784;28;20048;-77
2020/12/20 10:17:04;;;;;;;9.07;2.60;;;;;;;9.67;79.37;100438.97;5073621;28;20052;-78
2020/12/20 10:19:31;;;;;;;15.18;3.53;;;;;;;9.77;78.90;100445.56;5075230;28;20059;-76
2020/12/20 10:21:57;;;;;;;13.20;2.67;;;;;;;9.74;78.94;100443.03;5074005;28;20094;-77
2020/12/20 10:24:24;;;;;;;17.65;3.05;;;;;;;9.76;78.95;100439.34;5075032;28;20334;-76
2020/12/20 10:26:50;;;;;;;21.80;3.33;;;;;;;9.75;79.16;100434.13;5074780;28;20211;-76
2020/12/20 10:29:17;;;;;;;16.70;3.72;;;;;;;9.77;78.93;100442.91;5074865;28;20105;-76
2020/12/20 10:31:46;;;;;;;17.60;2.60;;;;;;;9.77;79.01;100430.41;5074758;28;20109;-78
2020/12/20 10:34:13;;;;;;;16.70;3.40;;;;;;;9.71;79.49;100433.44;5059594;28;20064;-77
2020/12/20 10:36:39;;;;;;;13.73;3.17;;;;;;;9.75;79.03;100418.97;5054855;28;20056;-76
2020/12/20 10:39:07;;;;;;;14.15;3.17;;;;;;;9.77;78.75;100422.41;5053512;28;20438;-76
2020/12/20 10:41:37;;;;;;;20.30;3.55;;;;;;;9.81;78.94;100431.09;5053869;28;20053;-76
2020/12/20 10:44:05;;;;;;;8.27;2.35;;;;;;;9.81;79.12;100431.09;5069724;28;20052;-77
2020/12/20 10:46:33;;;;;;;14.48;3.50;;;;;;;9.82;79.09;100427.53;5056602;28;20064;-79
2020/12/20 10:48:59;;;;;;;24.35;3.38;;;;;;;9.82;78.89;100411.53;5058781;28;20057;-79
2020/12/20 10:51:26;;;;;;;14.75;3.65;;;;;;;9.85;78.75;100413.16;5058331;28;20081;-77
2020/12/20 10:53:53;;;;;;;15.95;2.75;;;;;;;9.78;78.79;100412.63;5057591;28;20123;-74
2020/12/20 10:56:19;;;;;;;14.13;3.05;;;;;;;9.84;78.65;100419.41;5058541;28;20355;-76
2020/12/20 10:58:47;;;;;;;18.23;3.35;;;;;;;9.88;78.96;100413.88;5058510;28;20049;-77
2020/12/20 11:01:17;;;;;;;11.70;2.90;;;;;;;9.82;78.96;100411.53;5073891;28;20049;-78
2020/12/20 11:03:48;;;;;;;10.45;2.40;;;;;;;9.96;78.62;100413.44;5058223;28;20052;-76
2020/12/20 11:06:22;;;;;;;15.95;3.40;;;;;;;9.96;78.33;100415.25;5058476;28;20399;-75
2020/12/20 11:08:49;;;;;;;12.15;2.83;;;;;;;9.98;78.72;100410.69;5058324;28;20057;-75
2020/12/20 11:11:16;;;;;;;18.25;3.25;;;;;;;10.02;78.33;100409.59;5077391;28;20448;-75
2020/12/20 11:13:44;;;;;;;15.48;3.13;;;;;;;9.92;78.84;100398.56;5078193;28;20059;-74
2020/12/20 11:16:15;;;;;;;13.55;2.85;;;;;;;9.97;78.71;100408.97;5077834;28;20053;-74
2020/12/20 11:18:44;;;;;;;14.13;3.20;;;;;;;9.98;78.71;100410.69;5078208;28;20075;-78
2020/12/20 11:21:11;;;;;;;11.68;2.85;;;;;;;10.07;78.00;100406.66;5077890;28;20327;-76
2020/12/20 11:23:39;;;;;;;12.85;2.75;;;;;;;10.09;77.85;100402.97;5077478;28;20137;-75
2020/12/20 11:26:17;;;;;;;12.18;2.30;;;;;;;10.03;78.48;100395.31;5077957;28;20334;-75
2020/12/20 11:28:46;;;;;;;17.35;3.00;;;;;;;10.07;78.59;100406.66;5077901;28;20048;-77
2020/12/20 11:31:14;;;;;;;18.38;3.13;;;;;;;10.08;78.35;100392.38;5077671;28;20430;-80
2020/12/20 11:33:41;;;;;;;12.00;3.00;;;;;;;10.11;77.68;100395.75;5076578;28;20063;-81
2020/12/20 11:36:07;;;;;;;14.75;2.78;;;;;;;10.12;77.64;100385.91;5077717;28;20049;-78
2020/12/20 11:38:35;;;;;;;16.45;2.85;;;;;;;10.15;77.93;100389.28;5077825;28;20052;-79
2020/12/20 11:41:03;;;;;;;17.70;3.20;;;;;;;10.18;77.77;100389.13;5076820;28;20052;-77